createdAt,value
2023-02-12T00:01:25.240Z,100461.19
2023-02-12T00:06:30.577Z,100463.25
2023-02-12T00:11:38.547Z,100466.47
2023-02-12T00:16:44.185Z,100468.53
2023-02-12T00:21:49.307Z,100478.63
2023-02-12T00:26:56.970Z,100486.09
2023-02-12T00:32:02.172Z,100476.31
2023-02-12T00:37:07.106Z,100466.34
2023-02-12T00:42:15.049Z,100463.94
2023-02-12T00:47:20.367Z,100467.59
2023-02-12T00:52:28.531Z,100472.53
2023-02-12T00:57:36.303Z,100484.63
2023-02-12T01:02:44.475Z,100487.56
2023-02-12T01:07:53.179Z,100496.94
2023-02-12T01:13:02.482Z,100487.28
2023-02-12T01:18:08.472Z,100489.25
2023-02-12T01:23:14.596Z,100496.13
2023-02-12T01:28:24.349Z,100501.88
2023-02-12T01:33:29.522Z,100503.19
2023-02-12T01:38:34.579Z,100505.03
2023-02-12T01:43:43.514Z,100503.75
2023-02-12T01:48:51.206Z,100518.38
2023-02-12T01:53:58.358Z,100520.22
2023-02-12T01:59:06.202Z,100520.34
2023-02-12T02:04:15.644Z,100526.13
2023-02-12T02:09:22.904Z,100517.38
2023-02-12T02:14:36.524Z,100522.97
2023-02-12T02:19:59.272Z,100512.41
2023-02-12T02:25:38.906Z,100521.34
2023-02-12T02:30:56.448Z,100511.50
2023-02-12T02:36:13.236Z,100519.03
2023-02-12T02:41:22.774Z,100513.22
2023-02-12T02:46:35.402Z,100518.59
2023-02-12T02:51:46.246Z,100520.94
2023-02-12T02:56:58.183Z,100529.13
2023-02-12T03:02:12.132Z,100539.03
2023-02-12T03:07:22.933Z,100544.00
2023-02-12T03:12:34.339Z,100549.00
2023-02-12T03:17:47.426Z,100550.69
2023-02-12T03:22:57.017Z,100551.47
2023-02-12T03:28:07.565Z,100557.47
2023-02-12T03:33:23.224Z,100587.88
2023-02-12T03:38:37.438Z,100586.78
2023-02-12T03:43:51.674Z,100589.50
2023-02-12T03:49:06.423Z,100589.75
2023-02-12T03:54:18.572Z,100599.78
2023-02-12T03:59:25.115Z,100604.63
2023-02-12T04:04:35.330Z,100616.78
2023-02-12T04:09:42.895Z,100625.28
2023-02-12T04:14:55.696Z,100623.25
2023-02-12T04:20:15.548Z,100627.53
2023-02-12T04:25:32.947Z,100630.84
2023-02-12T04:30:45.646Z,100631.66
2023-02-12T04:35:58.066Z,100627.53
2023-02-12T04:41:03.275Z,100635.41
2023-02-12T04:46:12.573Z,100639.19
2023-02-12T04:51:20.418Z,100629.50
2023-02-12T04:56:25.314Z,100637.16
2023-02-12T05:01:31.447Z,100640.00
2023-02-12T05:06:44.489Z,100639.34
2023-02-12T05:11:51.511Z,100638.78
2023-02-12T05:16:56.460Z,100638.94
2023-02-12T05:22:04.179Z,100642.25
2023-02-12T05:27:09.243Z,100653.34
2023-02-12T05:32:14.324Z,100655.06
2023-02-12T05:37:21.823Z,100658.59
2023-02-12T05:42:26.828Z,100669.09
2023-02-12T05:47:33.836Z,100657.22
2023-02-12T05:52:43.649Z,100661.50
2023-02-12T05:57:48.585Z,100667.19
2023-02-12T06:02:53.715Z,100664.81
2023-02-12T06:08:02.701Z,100665.25
2023-02-12T06:13:13.480Z,100679.09
2023-02-12T06:18:18.393Z,100683.19
2023-02-12T06:23:27.276Z,100696.34
2023-02-12T06:28:32.237Z,100702.59
2023-02-12T06:33:38.361Z,100701.75
2023-02-12T06:38:46.319Z,100716.66
2023-02-12T06:43:53.356Z,100720.91
2023-02-12T06:48:59.151Z,100727.94
2023-02-12T06:54:06.956Z,100741.28
2023-02-12T06:59:16.984Z,100752.25
2023-02-12T07:04:21.871Z,100752.25
2023-02-12T07:09:29.811Z,100753.34
2023-02-12T07:14:34.714Z,100761.22
2023-02-12T07:19:42.168Z,100760.88
2023-02-12T07:24:50.816Z,100770.16
2023-02-12T07:29:55.954Z,100775.91
2023-02-12T07:35:00.935Z,100774.19
2023-02-12T07:40:10.644Z,100772.69
2023-02-12T07:45:20.280Z,100772.72
2023-02-12T07:50:28.221Z,100780.53
2023-02-12T07:55:37.910Z,100782.41
2023-02-12T08:00:42.863Z,100794.97
2023-02-12T08:05:47.908Z,100795.34
2023-02-12T08:11:02.647Z,100796.06
2023-02-12T08:16:14.903Z,100814.31
2023-02-12T08:21:22.147Z,100812.25
2023-02-12T08:26:34.354Z,100810.75
2023-02-12T08:31:46.566Z,100802.84
2023-02-12T08:36:54.193Z,100816.03
2023-02-12T08:42:03.364Z,100812.03
2023-02-12T08:47:10.215Z,100815.28
2023-02-12T08:52:15.548Z,100814.50
2023-02-12T08:57:24.253Z,100824.19
2023-02-12T09:02:29.223Z,100835.97
2023-02-12T09:07:36.895Z,100843.13
2023-02-12T09:12:48.543Z,100842.66
2023-02-12T09:17:54.478Z,100848.31
2023-02-12T09:23:00.781Z,100848.63
2023-02-12T09:28:09.219Z,100852.44
2023-02-12T09:33:15.458Z,100862.38
2023-02-12T09:38:20.598Z,100861.84
2023-02-12T09:43:37.209Z,100864.16
2023-02-12T09:49:01.252Z,100857.50
2023-02-12T09:54:09.223Z,100864.41
2023-02-12T09:59:24.575Z,100870.69
2023-02-12T10:04:31.210Z,100871.13
2023-02-12T10:09:54.973Z,100874.38
2023-02-12T10:15:30.056Z,100876.72
2023-02-12T10:20:51.048Z,100882.72
2023-02-12T10:25:57.942Z,100882.47
2023-02-12T10:31:10.693Z,100877.41
2023-02-12T10:36:27.005Z,100878.50
2023-02-12T10:41:36.923Z,100887.13
2023-02-12T10:46:44.651Z,100885.50
2023-02-12T10:52:17.207Z,100877.81
2023-02-12T10:57:26.960Z,100880.75
2023-02-12T11:02:38.035Z,100869.53
2023-02-12T11:07:51.892Z,100873.69
2023-02-12T11:13:00.718Z,100871.47
2023-02-12T11:18:11.586Z,100880.47
2023-02-12T11:23:29.894Z,100865.63
2023-02-12T11:28:37.144Z,100864.47
2023-02-12T11:33:45.784Z,100866.44
2023-02-12T11:38:54.734Z,100870.69
2023-02-12T11:44:00.174Z,100862.16
2023-02-12T11:49:09.574Z,100860.44
2023-02-12T11:54:25.233Z,100868.22
2023-02-12T11:59:38.114Z,100859.50
2023-02-12T12:04:46.829Z,100853.50
2023-02-12T12:09:58.733Z,100855.72
2023-02-12T12:15:21.250Z,100844.84
2023-02-12T12:20:35.491Z,100848.78
2023-02-12T12:25:48.226Z,100854.66
2023-02-12T12:31:05.073Z,100850.84
2023-02-12T12:36:38.121Z,100841.53
2023-02-12T12:41:59.354Z,100831.97
2023-02-12T12:47:19.484Z,100833.56
2023-02-12T12:52:49.814Z,100834.94
2023-02-12T12:58:04.415Z,100832.06
2023-02-12T13:03:37.571Z,100825.94
2023-02-12T13:09:06.795Z,100823.28
2023-02-12T13:14:28.141Z,100817.66
2023-02-12T13:19:46.980Z,100822.84
2023-02-12T13:25:00.772Z,100821.13
2023-02-12T13:30:10.532Z,100825.84
2023-02-12T13:35:23.656Z,100823.19
2023-02-12T13:40:43.242Z,100826.66
2023-02-12T13:45:56.990Z,100825.38
2023-02-12T13:51:11.695Z,100828.38
2023-02-12T13:56:32.331Z,100821.47
2023-02-12T14:01:43.316Z,100823.19
2023-02-12T14:06:59.727Z,100831.84
2023-02-12T14:12:10.218Z,100829.66
2023-02-12T14:17:45.555Z,100836.81
2023-02-12T14:23:04.112Z,100831.03
2023-02-12T14:28:30.373Z,100839.34
2023-02-12T14:33:35.953Z,100840.72
2023-02-12T14:39:03.658Z,100842.69
2023-02-12T14:44:50.209Z,100840.16
2023-02-12T14:49:58.197Z,100840.34
2023-02-12T14:55:08.154Z,100848.06
2023-02-12T15:00:26.770Z,100855.81
2023-02-12T15:05:35.423Z,100847.16
2023-02-12T15:10:45.902Z,100852.91
2023-02-12T15:16:01.187Z,100843.38
2023-02-12T15:21:17.142Z,100846.16
2023-02-12T15:26:34.285Z,100842.22
2023-02-12T15:31:42.345Z,100843.16
2023-02-12T15:36:49.609Z,100853.38
2023-02-12T15:41:55.912Z,100843.94
2023-02-12T15:47:06.566Z,100847.28
2023-02-12T15:52:14.662Z,100845.44
2023-02-12T15:57:27.334Z,100837.94
2023-02-12T16:02:38.240Z,100845.91
2023-02-12T16:07:46.337Z,100846.59
2023-02-12T16:12:53.231Z,100848.31
2023-02-12T16:18:04.550Z,100852.56
2023-02-12T16:23:10.307Z,100860.03
2023-02-12T16:28:30.291Z,100863.16
2023-02-12T16:33:51.412Z,100867.59
2023-02-12T16:39:00.460Z,100877.28
2023-02-12T16:44:29.802Z,100883.63
2023-02-12T16:49:37.937Z,100891.63
2023-02-12T16:54:42.879Z,100886.53
2023-02-12T16:59:47.925Z,100887.13
2023-02-12T17:05:01.033Z,100884.06
2023-02-12T17:10:06.372Z,100889.19
2023-02-12T17:15:19.022Z,100888.75
2023-02-12T17:20:26.615Z,100904.75
2023-02-12T17:25:32.015Z,100913.50
2023-02-12T17:30:37.821Z,100911.81
2023-02-12T17:35:45.600Z,100915.88
2023-02-12T17:40:53.519Z,100916.66
2023-02-12T17:45:59.652Z,100915.16
2023-02-12T17:51:09.567Z,100920.53
2023-02-12T17:56:15.073Z,100928.47
2023-02-12T18:01:25.475Z,100928.84
2023-02-12T18:06:34.514Z,100933.47
2023-02-12T18:11:42.294Z,100939.19
2023-02-12T18:16:47.465Z,100934.06
2023-02-12T18:21:55.161Z,100937.66
2023-02-12T18:27:08.530Z,100922.16
2023-02-12T18:32:18.151Z,100930.34
2023-02-12T18:37:27.539Z,100934.66
2023-02-12T18:42:33.506Z,100933.47
2023-02-12T18:47:38.627Z,100929.16
2023-02-12T18:52:46.508Z,100914.81
2023-02-12T18:57:52.205Z,100924.06
2023-02-12T19:02:57.191Z,100918.69
2023-02-12T19:08:04.819Z,100922.00
2023-02-12T19:13:09.974Z,100911.66
2023-02-12T19:18:16.568Z,100918.69
2023-02-12T19:23:24.590Z,100919.81
2023-02-12T19:28:32.747Z,100920.03
2023-02-12T19:33:39.203Z,100916.28
2023-02-12T19:38:48.267Z,100902.66
2023-02-12T19:43:56.328Z,100907.44
2023-02-12T19:49:10.000Z,100914.19
2023-02-12T19:54:24.151Z,100904.13
2023-02-12T19:59:30.637Z,100901.25
2023-02-12T20:04:37.181Z,100891.09
2023-02-12T20:09:45.178Z,100904.69
2023-02-12T20:14:51.217Z,100901.06
2023-02-12T20:19:58.778Z,100899.19
2023-02-12T20:25:09.474Z,100901.88
2023-02-12T20:30:16.070Z,100909.88
2023-02-12T20:35:24.808Z,100907.47
2023-02-12T20:40:34.968Z,100909.16
2023-02-12T20:45:42.633Z,100904.50
2023-02-12T20:50:47.733Z,100912.88
2023-02-12T20:55:56.796Z,100912.16
2023-02-12T21:01:12.639Z,100911.22
2023-02-12T21:06:22.957Z,100904.63
2023-02-12T21:11:33.809Z,100908.69
2023-02-12T21:16:41.211Z,100909.91
2023-02-12T21:21:48.228Z,100907.91
2023-02-12T21:26:57.674Z,100909.09
2023-02-12T21:32:04.418Z,100910.97
2023-02-12T21:37:10.883Z,100918.19
2023-02-12T21:42:18.562Z,100908.69
2023-02-12T21:47:23.428Z,100907.97
2023-02-12T21:52:30.806Z,100909.91
2023-02-12T21:57:40.741Z,100907.47
2023-02-12T22:02:45.775Z,100907.53
2023-02-12T22:07:54.426Z,100906.25
2023-02-12T22:13:04.491Z,100902.94
2023-02-12T22:18:09.357Z,100899.75
2023-02-12T22:23:16.661Z,100900.94
2023-02-12T22:28:26.407Z,100900.56
2023-02-12T22:33:31.484Z,100909.22
2023-02-12T22:38:40.657Z,100911.44
2023-02-12T22:43:48.250Z,100911.34
2023-02-12T22:48:53.278Z,100913.28
2023-02-12T22:54:00.020Z,100909.59
2023-02-12T22:59:09.259Z,100914.22
2023-02-12T23:04:20.315Z,100913.63
2023-02-12T23:09:25.328Z,100899.75
2023-02-12T23:14:35.134Z,100900.53
2023-02-12T23:19:44.336Z,100910.63
2023-02-12T23:24:51.003Z,100902.75
2023-02-12T23:29:59.009Z,100901.91
2023-02-12T23:35:05.998Z,100899.75
2023-02-12T23:40:13.117Z,100901.97
2023-02-12T23:45:21.024Z,100890.25
2023-02-12T23:50:26.484Z,100887.81
2023-02-12T23:55:35.050Z,100884.78
